Time;durP1;ratioP1;P1;durP2;ratioP2;P2;SDS_P1;SDS_P2;PMS_P1;PMS_P2;Temp;Humidity;BMP_temperature;BMP_pressure;BME280_temperature;BME280_humidity;BME280_pressure;Samples;Min_cycle;Max_cycle;Signal;HPM_P1;HPM_P2
2024/02/29 00:02:24;;;;;;;42.75;13.25;;;1.70;100.00;;;;;;5002517;28;20073;-76
2024/02/29 00:04:51;;;;;;;31.65;12.75;;;1.70;100.00;;;;;;4984634;28;20078;-76
2024/02/29 00:07:18;;;;;;;31.08;11.85;;;1.60;100.00;;;;;;4985290;28;20109;-76
2024/02/29 00:09:44;;;;;;;33.10;12.50;;;1.60;100.00;;;;;;4986399;28;20050;-76
2024/02/29 00:12:11;;;;;;;34.13;12.35;;;1.60;100.00;;;;;;4985516;28;20053;-76
2024/02/29 00:14:38;;;;;;;37.03;13.30;;;1.50;100.00;;;;;;4986052;28;20058;-76
2024/02/29 00:17:05;;;;;;;36.08;13.27;;;1.50;100.00;;;;;;4987799;28;20050;-76
2024/02/29 00:19:33;;;;;;;37.47;14.60;;;1.40;100.00;;;;;;5000839;28;20050;-76
2024/02/29 00:22:00;;;;;;;33.08;12.70;;;1.40;100.00;;;;;;4984846;28;20698;-76
2024/02/29 00:24:27;;;;;;;36.30;11.68;;;1.30;100.00;;;;;;4986414;28;20097;-76
2024/02/29 00:26:54;;;;;;;37.22;12.63;;;1.30;100.00;;;;;;4986510;28;20050;-76
2024/02/29 00:29:25;;;;;;;34.60;12.93;;;1.30;100.00;;;;;;4987054;28;20108;-75
2024/02/29 00:31:52;;;;;;;44.55;15.20;;;1.30;100.00;;;;;;4985991;28;20054;-76
2024/02/29 00:34:19;;;;;;;35.28;13.23;;;1.20;100.00;;;;;;4985471;28;20054;-76
2024/02/29 00:36:46;;;;;;;38.30;13.35;;;1.20;100.00;;;;;;4982369;28;20798;-76
2024/02/29 00:39:13;;;;;;;44.33;14.55;;;1.10;100.00;;;;;;5000772;28;20129;-76
2024/02/29 00:41:41;;;;;;;33.97;13.23;;;1.10;100.00;;;;;;4986832;28;20141;-76
2024/02/29 00:44:09;;;;;;;41.25;13.52;;;1.10;100.00;;;;;;4967774;28;20063;-76
2024/02/29 00:46:40;;;;;;;46.13;13.13;;;1.00;100.00;;;;;;4987611;28;20050;-76
2024/02/29 00:49:07;;;;;;;35.65;11.65;;;1.00;100.00;;;;;;4986004;28;20058;-76
2024/02/29 00:51:34;;;;;;;35.78;12.32;;;0.90;100.00;;;;;;4978031;28;20383;-76
2024/02/29 00:54:01;;;;;;;33.83;12.35;;;0.90;100.00;;;;;;4987278;28;20051;-76
2024/02/29 00:56:28;;;;;;;41.83;13.35;;;0.80;100.00;;;;;;4985579;28;20144;-76
2024/02/29 00:58:55;;;;;;;39.03;13.98;;;0.80;100.00;;;;;;4985753;28;20168;-76
2024/02/29 01:01:21;;;;;;;36.63;13.50;;;0.70;100.00;;;;;;4984836;28;20101;-76
2024/02/29 01:03:48;;;;;;;30.17;12.48;;;0.70;100.00;;;;;;4997912;28;20054;-76
2024/02/29 01:06:15;;;;;;;41.83;13.00;;;0.70;100.00;;;;;;4984997;28;20519;-76
2024/02/29 01:08:42;;;;;;;40.80;14.25;;;0.70;100.00;;;;;;4985817;28;20065;-76
2024/02/29 01:11:09;;;;;;;34.78;12.18;;;0.60;100.00;;;;;;4985511;28;20105;-76
2024/02/29 01:13:36;;;;;;;48.95;14.93;;;0.60;100.00;;;;;;4968344;28;20077;-76
2024/02/29 01:16:03;;;;;;;38.92;12.65;;;0.50;100.00;;;;;;4988107;28;20146;-76
2024/02/29 01:18:30;;;;;;;33.88;12.35;;;0.50;100.00;;;;;;4969081;28;20444;-75
2024/02/29 01:20:57;;;;;;;38.92;12.60;;;0.50;100.00;;;;;;4985400;28;20097;-76
2024/02/29 01:23:24;;;;;;;36.33;13.18;;;0.40;100.00;;;;;;4986926;28;20151;-76
2024/02/29 01:25:50;;;;;;;34.30;11.98;;;0.30;100.00;;;;;;4990953;28;20162;-76
2024/02/29 01:28:17;;;;;;;45.60;12.68;;;0.30;100.00;;;;;;4991205;28;20066;-76
2024/02/29 01:30:44;;;;;;;42.20;14.80;;;0.20;100.00;;;;;;4989007;28;20108;-76
2024/02/29 01:33:11;;;;;;;37.75;13.65;;;0.20;100.00;;;;;;4988068;28;20113;-76
2024/02/29 01:35:38;;;;;;;42.70;15.00;;;0.10;100.00;;;;;;4986654;28;20050;-76
2024/02/29 01:38:05;;;;;;;45.33;13.93;;;0.10;100.00;;;;;;4990534;28;20521;-76
2024/02/29 01:40:32;;;;;;;41.88;13.70;;;0.10;100.00;;;;;;4993956;28;20058;-76
2024/02/29 01:42:59;;;;;;;41.45;13.50;;;0.10;100.00;;;;;;4970376;28;20050;-76
2024/02/29 01:45:25;;;;;;;44.58;16.80;;;0.00;100.00;;;;;;4988595;28;20046;-76
2024/02/29 01:47:52;;;;;;;46.30;15.77;;;0.00;100.00;;;;;;4988415;28;20450;-70
2024/02/29 01:50:20;;;;;;;36.42;13.60;;;0.00;100.00;;;;;;4987289;28;20137;-70
2024/02/29 01:52:48;;;;;;;44.50;14.07;;;0.00;100.00;;;;;;4985551;28;20133;-70
2024/02/29 01:55:15;;;;;;;39.92;13.65;;;0.00;100.00;;;;;;4985121;28;20172;-70
2024/02/29 01:57:43;;;;;;;43.97;15.32;;;0.00;100.00;;;;;;4984712;28;20309;-70
2024/02/29 02:00:10;;;;;;;49.72;14.80;;;0.00;100.00;;;;;;4986285;28;20133;-70
2024/02/29 02:02:38;;;;;;;40.85;13.60;;;0.00;100.00;;;;;;4971221;28;20061;-70
2024/02/29 02:05:06;;;;;;;51.55;15.65;;;0.00;100.00;;;;;;4986327;28;20100;-76
2024/02/29 02:07:38;;;;;;;52.38;15.68;;;0.00;100.00;;;;;;4988261;28;20050;-76
2024/02/29 02:10:07;;;;;;;44.58;14.68;;;0.00;100.00;;;;;;4987895;28;20124;-76
2024/02/29 02:12:35;;;;;;;48.92;16.20;;;0.00;100.00;;;;;;4983576;28;20054;-76
2024/02/29 02:15:02;;;;;;;52.28;14.75;;;0.00;100.00;;;;;;4990702;28;20072;-76
2024/02/29 02:17:31;;;;;;;45.83;16.17;;;0.00;100.00;;;;;;5007151;28;20039;-76
2024/02/29 02:20:00;;;;;;;51.00;16.95;;;0.00;100.00;;;;;;4987045;28;20051;-76
2024/02/29 02:22:28;;;;;;;53.97;16.52;;;0.00;100.00;;;;;;4969511;28;20507;-76
2024/02/29 02:24:55;;;;;;;53.40;16.55;;;0.00;100.00;;;;;;5014922;22;20055;-70
2024/02/29 02:27:23;;;;;;;62.10;15.68;;;0.00;100.00;;;;;;5054672;28;20115;-70
2024/02/29 02:29:50;;;;;;;61.38;18.20;;;0.00;100.00;;;;;;5063179;28;20598;-70
2024/02/29 02:32:17;;;;;;;56.47;17.05;;;0.00;100.00;;;;;;5062330;28;20060;-70
2024/02/29 02:34:43;;;;;;;52.00;15.07;;;0.10;100.00;;;;;;5052704;28;20144;-70
2024/02/29 02:37:10;;;;;;;49.58;15.98;;;0.10;100.00;;;;;;5060156;28;20205;-70
2024/02/29 02:39:37;;;;;;;52.42;16.85;;;0.10;100.00;;;;;;5061695;28;20130;-70
2024/02/29 02:42:04;;;;;;;49.53;17.33;;;0.20;100.00;;;;;;5058264;28;20146;-70
2024/02/29 02:44:31;;;;;;;53.08;17.85;;;0.20;100.00;;;;;;5061428;28;20056;-70
2024/02/29 02:46:58;;;;;;;61.28;18.90;;;0.20;100.00;;;;;;5059852;28;20495;-70
2024/02/29 02:49:25;;;;;;;61.97;19.42;;;0.20;100.00;;;;;;5056448;28;20103;-70
2024/02/29 02:51:51;;;;;;;59.90;18.52;;;0.20;100.00;;;;;;5061194;28;20121;-70
2024/02/29 02:54:18;;;;;;;57.65;18.08;;;0.20;100.00;;;;;;5061070;28;20041;-70
2024/02/29 02:56:45;;;;;;;63.58;19.25;;;0.20;100.00;;;;;;5062304;28;20122;-70
2024/02/29 02:59:12;;;;;;;69.13;18.55;;;0.20;100.00;;;;;;5055350;28;20060;-70
2024/02/29 03:01:39;;;;;;;57.80;19.27;;;0.10;100.00;;;;;;5061235;28;20044;-76
2024/02/29 03:04:06;;;;;;;53.50;17.80;;;0.10;100.00;;;;;;5057875;28;20482;-76
2024/02/29 03:06:32;;;;;;;54.25;17.90;;;0.10;100.00;;;;;;5057622;28;20099;-76
2024/02/29 03:08:59;;;;;;;66.90;17.63;;;0.10;100.00;;;;;;5055968;28;20779;-76
2024/02/29 03:11:26;;;;;;;58.60;20.27;;;0.10;100.00;;;;;;5057279;28;20151;-76
2024/02/29 03:13:53;;;;;;;62.15;18.95;;;0.10;100.00;;;;;;5051806;28;20409;-76
2024/02/29 03:16:23;;;;;;;68.95;20.27;;;0.10;100.00;;;;;;5055468;28;20397;-76
2024/02/29 03:18:50;;;;;;;58.53;18.00;;;0.10;100.00;;;;;;5056835;28;20522;-75
2024/02/29 03:21:18;;;;;;;62.92;20.15;;;0.10;100.00;;;;;;5063270;28;20048;-76
2024/02/29 03:23:45;;;;;;;66.40;19.73;;;0.10;100.00;;;;;;5058738;28;20857;-76
2024/02/29 03:26:11;;;;;;;65.55;20.08;;;0.10;100.00;;;;;;5059719;28;20810;-76
2024/02/29 03:28:39;;;;;;;60.67;21.30;;;0.10;100.00;;;;;;5056502;28;20048;-76
2024/02/29 03:31:10;;;;;;;65.28;19.98;;;0.10;100.00;;;;;;5054282;28;20086;-76
2024/02/29 03:33:37;;;;;;;58.63;18.90;;;0.00;100.00;;;;;;5059803;28;20057;-76
2024/02/29 03:36:04;;;;;;;64.45;18.83;;;0.00;100.00;;;;;;5056368;28;20109;-76
2024/02/29 03:38:31;;;;;;;58.95;18.30;;;0.00;100.00;;;;;;5062105;28;20040;-76
2024/02/29 03:40:58;;;;;;;70.90;19.08;;;0.00;100.00;;;;;;5065287;28;20045;-76
2024/02/29 03:43:25;;;;;;;64.45;20.17;;;0.10;100.00;;;;;;5052991;28;20132;-76
2024/02/29 03:45:52;;;;;;;63.47;19.95;;;0.00;100.00;;;;;;5063389;28;20805;-76
2024/02/29 03:48:19;;;;;;;63.65;19.98;;;0.00;100.00;;;;;;5059759;28;20066;-78
2024/02/29 03:50:46;;;;;;;61.50;20.40;;;0.00;100.00;;;;;;5066949;22;20456;-70
2024/02/29 03:53:12;;;;;;;57.05;19.45;;;0.00;100.00;;;;;;5034958;28;20045;-70
2024/02/29 03:55:39;;;;;;;71.03;21.63;;;0.00;100.00;;;;;;5033140;28;20599;-70
2024/02/29 03:58:06;;;;;;;80.32;22.27;;;0.00;100.00;;;;;;5045947;22;20110;-70
2024/02/29 04:00:33;;;;;;;63.65;19.20;;;0.00;100.00;;;;;;5035455;28;20141;-70
2024/02/29 04:03:00;;;;;;;72.38;21.05;;;0.00;100.00;;;;;;5045583;28;20156;-70
2024/02/29 04:05:27;;;;;;;64.10;20.52;;;0.00;100.00;;;;;;5042827;28;20523;-70
2024/02/29 04:08:00;;;;;;;68.82;19.67;;;0.00;100.00;;;;;;5038703;28;20653;-70
2024/02/29 04:10:27;;;;;;;56.72;20.98;;;0.00;100.00;;;;;;5042263;28;20049;-70
2024/02/29 04:12:54;;;;;;;66.25;21.33;;;0.00;100.00;;;;;;5037603;28;20052;-70
2024/02/29 04:15:21;;;;;;;68.47;22.05;;;0.00;100.00;;;;;;5035643;28;20135;-70
2024/02/29 04:17:48;;;;;;;68.97;22.27;;;0.00;100.00;;;;;;5037491;28;20064;-70
2024/02/29 04:20:15;;;;;;;71.25;19.90;;;0.00;100.00;;;;;;5035601;28;20045;-70
2024/02/29 04:22:42;;;;;;;64.45;20.40;;;-0.10;100.00;;;;;;5033301;28;20069;-70
2024/02/29 04:25:10;;;;;;;63.22;20.38;;;-0.10;100.00;;;;;;5034408;28;20815;-70
2024/02/29 04:27:38;;;;;;;75.57;23.13;;;-0.10;100.00;;;;;;5036099;28;20057;-70
2024/02/29 04:30:08;;;;;;;66.97;22.75;;;0.00;100.00;;;;;;5034484;28;20048;-70
2024/02/29 04:33:00;;;;;;;75.30;21.65;;;0.00;100.00;;;;;;5034895;28;20485;-70
2024/02/29 04:35:27;;;;;;;74.65;22.58;;;0.00;100.00;;;;;;5033253;28;20049;-69
2024/02/29 04:37:54;;;;;;;71.63;23.25;;;0.00;100.00;;;;;;5033288;28;20496;-70
2024/02/29 04:40:21;;;;;;;80.60;22.83;;;0.00;100.00;;;;;;5037236;28;20048;-70
2024/02/29 04:42:48;;;;;;;65.43;23.15;;;0.00;100.00;;;;;;5039838;28;20386;-70
2024/02/29 04:45:14;;;;;;;67.68;22.30;;;0.00;100.00;;;;;;5041280;28;20054;-70
2024/02/29 04:47:41;;;;;;;69.43;21.20;;;0.00;100.00;;;;;;5034073;28;20060;-70
2024/02/29 04:50:09;;;;;;;79.93;24.00;;;0.00;100.00;;;;;;5042486;28;20045;-69
2024/02/29 04:52:35;;;;;;;72.32;22.60;;;0.00;100.00;;;;;;5037266;28;20077;-70
2024/02/29 04:55:02;;;;;;;62.20;20.95;;;0.00;100.00;;;;;;5035257;28;20847;-69
2024/02/29 04:57:29;;;;;;;80.25;24.05;;;0.00;100.00;;;;;;5035285;28;20085;-69
2024/02/29 04:59:57;;;;;;;70.15;22.55;;;0.00;100.00;;;;;;5036128;28;20150;-70
2024/02/29 05:02:23;;;;;;;73.80;24.58;;;0.00;100.00;;;;;;5044089;28;20057;-69
2024/02/29 05:04:50;;;;;;;70.07;22.83;;;0.00;100.00;;;;;;5040898;28;20053;-69
2024/02/29 05:07:17;;;;;;;66.40;20.73;;;0.00;100.00;;;;;;5042269;28;20080;-69
2024/02/29 05:09:44;;;;;;;72.72;23.20;;;0.00;100.00;;;;;;5039383;28;20056;-69
2024/02/29 05:12:11;;;;;;;77.97;23.50;;;0.00;100.00;;;;;;5039962;28;20049;-70
2024/02/29 05:14:38;;;;;;;74.30;21.50;;;0.00;100.00;;;;;;5034092;28;20085;-70
2024/02/29 05:17:04;;;;;;;70.80;23.45;;;0.00;100.00;;;;;;5038874;28;20126;-70
2024/02/29 05:19:31;;;;;;;75.93;23.27;;;0.00;100.00;;;;;;5053938;22;20041;-70
2024/02/29 05:21:58;;;;;;;75.55;22.30;;;0.00;100.00;;;;;;5061368;28;20107;-70
2024/02/29 05:24:25;;;;;;;72.07;24.15;;;0.00;100.00;;;;;;5057891;28;20502;-70
2024/02/29 05:26:52;;;;;;;82.07;24.30;;;0.00;100.00;;;;;;5057085;28;20048;-69
2024/02/29 05:29:18;;;;;;;76.05;21.70;;;0.00;100.00;;;;;;5059373;28;20118;-69
2024/02/29 05:31:52;;;;;;;75.00;22.38;;;0.00;100.00;;;;;;5050378;28;20076;-70
2024/02/29 05:34:23;;;;;;;70.60;23.30;;;-0.10;100.00;;;;;;5054768;28;20052;-70
2024/02/29 05:36:50;;;;;;;71.68;23.80;;;-0.10;100.00;;;;;;5055161;28;20645;-70
2024/02/29 05:39:18;;;;;;;66.43;21.45;;;-0.10;100.00;;;;;;5056489;28;20044;-70
2024/02/29 05:41:44;;;;;;;76.50;21.67;;;-0.10;100.00;;;;;;5059698;28;20789;-76
2024/02/29 05:44:11;;;;;;;76.60;24.17;;;-0.10;100.00;;;;;;5056665;28;20055;-76
2024/02/29 05:46:38;;;;;;;73.63;21.20;;;-0.10;100.00;;;;;;5060667;28;20098;-77
2024/02/29 05:49:05;;;;;;;70.32;20.75;;;-0.10;100.00;;;;;;5059245;28;20793;-76
2024/02/29 05:51:32;;;;;;;64.95;21.85;;;-0.10;100.00;;;;;;5067679;28;20503;-78
2024/02/29 05:53:59;;;;;;;69.95;22.05;;;-0.10;100.00;;;;;;5061314;28;20066;-76
2024/02/29 05:56:26;;;;;;;71.18;21.98;;;-0.10;100.00;;;;;;5068047;28;20114;-78
2024/02/29 05:58:53;;;;;;;64.93;20.55;;;-0.10;100.00;;;;;;5057849;28;20094;-78
2024/02/29 06:01:20;;;;;;;77.13;22.48;;;-0.10;100.00;;;;;;5068818;28;20108;-77
2024/02/29 06:03:47;;;;;;;63.70;19.50;;;-0.10;100.00;;;;;;5073169;22;20049;-79
2024/02/29 06:06:16;;;;;;;77.68;23.92;;;0.00;100.00;;;;;;5064099;28;20045;-80
2024/02/29 06:11:39;;;;;;;67.18;21.13;;;0.00;100.00;;;;;;4978590;28;20506;-76
2024/02/29 06:14:06;;;;;;;68.10;19.85;;;0.00;100.00;;;;;;4980917;28;20074;-72
2024/02/29 06:16:33;;;;;;;81.32;22.83;;;0.00;100.00;;;;;;4995323;28;20054;-72
2024/02/29 06:19:00;;;;;;;76.30;22.42;;;0.00;100.00;;;;;;4983913;28;20065;-74
2024/02/29 06:21:27;;;;;;;71.93;22.38;;;0.00;100.00;;;;;;4979178;28;20133;-72
2024/02/29 06:23:54;;;;;;;65.13;22.05;;;0.00;100.00;;;;;;4989440;28;20149;-70
2024/02/29 06:26:20;;;;;;;67.70;22.20;;;0.00;100.00;;;;;;4983071;28;20054;-70
2024/02/29 06:28:47;;;;;;;78.10;22.88;;;0.10;100.00;;;;;;5007129;22;20157;-78
2024/02/29 06:31:14;;;;;;;80.15;23.02;;;0.10;100.00;;;;;;5032847;28;20129;-78
2024/02/29 06:33:41;;;;;;;79.68;21.73;;;0.20;100.00;;;;;;5032652;28;20146;-78
2024/02/29 06:36:08;;;;;;;71.80;22.58;;;0.20;100.00;;;;;;5033646;28;20102;-78
2024/02/29 06:38:36;;;;;;;74.10;22.52;;;0.20;100.00;;;;;;5037470;28;20049;-78
2024/02/29 06:41:08;;;;;;;70.25;21.77;;;0.30;100.00;;;;;;5040109;28;20048;-70
2024/02/29 06:43:35;;;;;;;75.50;21.67;;;0.30;100.00;;;;;;5041175;28;20045;-71
2024/02/29 06:46:06;;;;;;;65.68;22.50;;;0.40;100.00;;;;;;5042043;28;20049;-71
2024/02/29 06:48:34;;;;;;;73.55;21.90;;;0.40;100.00;;;;;;5043852;28;20064;-70
2024/02/29 06:51:01;;;;;;;73.53;21.77;;;0.50;100.00;;;;;;5047960;28;20048;-70
2024/02/29 06:53:30;;;;;;;74.10;24.90;;;0.60;100.00;;;;;;5044749;28;20056;-70
2024/02/29 06:55:57;;;;;;;74.63;23.00;;;0.70;100.00;;;;;;5034249;28;20056;-70
2024/02/29 06:58:23;;;;;;;79.82;23.45;;;0.80;100.00;;;;;;5043277;28;20481;-70
2024/02/29 07:00:50;;;;;;;76.45;22.70;;;0.80;100.00;;;;;;5043756;28;20296;-70
2024/02/29 07:03:17;;;;;;;81.20;24.30;;;0.90;100.00;;;;;;5032443;28;20068;-70
2024/02/29 07:05:45;;;;;;;78.00;23.85;;;1.00;100.00;;;;;;5033977;28;20049;-71
2024/02/29 07:08:13;;;;;;;84.55;23.20;;;1.10;100.00;;;;;;5032320;28;20068;-70
2024/02/29 07:10:41;;;;;;;78.00;22.65;;;1.30;100.00;;;;;;5033145;28;20049;-71
2024/02/29 07:13:08;;;;;;;69.55;22.50;;;1.40;100.00;;;;;;5032590;28;20381;-71
2024/02/29 07:15:35;;;;;;;67.82;22.60;;;1.50;100.00;;;;;;5038743;28;20052;-71
2024/02/29 07:18:01;;;;;;;72.95;24.08;;;1.60;100.00;;;;;;5039723;28;20041;-70
2024/02/29 07:20:28;;;;;;;69.45;22.52;;;1.70;100.00;;;;;;5034577;28;20041;-70
2024/02/29 07:22:56;;;;;;;68.80;23.23;;;1.80;100.00;;;;;;5042389;28;20423;-71
2024/02/29 07:25:23;;;;;;;76.63;22.05;;;1.90;100.00;;;;;;5029746;28;20065;-71
2024/02/29 07:27:49;;;;;;;74.93;24.02;;;2.00;100.00;;;;;;5038588;28;20132;-71
2024/02/29 07:30:16;;;;;;;77.03;23.17;;;2.10;100.00;;;;;;5038896;28;20057;-71
2024/02/29 07:32:43;;;;;;;65.30;22.42;;;2.20;100.00;;;;;;5030115;28;20474;-71
2024/02/29 07:35:13;;;;;;;65.07;21.75;;;2.20;100.00;;;;;;5037433;28;20552;-71
2024/02/29 07:37:41;;;;;;;65.72;22.40;;;2.30;100.00;;;;;;5035425;28;20107;-71
2024/02/29 07:40:08;;;;;;;77.30;21.88;;;2.40;100.00;;;;;;5041712;28;20049;-71
2024/02/29 07:42:36;;;;;;;64.38;20.95;;;2.50;100.00;;;;;;5026904;28;20103;-71
2024/02/29 07:45:05;;;;;;;75.90;22.58;;;2.60;100.00;;;;;;5039549;28;20045;-79
2024/02/29 07:47:32;;;;;;;69.25;21.40;;;2.70;100.00;;;;;;5029777;28;20154;-79
2024/02/29 07:49:59;;;;;;;68.72;22.67;;;2.70;100.00;;;;;;5039427;28;20147;-79
2024/02/29 07:52:27;;;;;;;60.50;21.13;;;2.80;100.00;;;;;;5030979;28;20053;-80
2024/02/29 07:54:54;;;;;;;72.75;21.58;;;2.90;100.00;;;;;;5029714;28;20076;-80
2024/02/29 07:57:21;;;;;;;65.18;21.60;;;3.00;100.00;;;;;;5035361;28;20485;-79
2024/02/29 07:59:47;;;;;;;61.47;20.90;;;3.00;100.00;;;;;;5031856;28;20119;-77
2024/02/29 08:02:14;;;;;;;71.07;21.98;;;3.10;100.00;;;;;;5031661;28;20150;-78
2024/02/29 08:04:41;;;;;;;60.28;20.67;;;3.20;100.00;;;;;;5030461;28;20130;-78
2024/02/29 08:07:08;;;;;;;65.88;20.13;;;3.30;100.00;;;;;;5038422;28;20051;-78
2024/02/29 08:09:35;;;;;;;60.95;20.75;;;3.40;100.00;;;;;;5031797;28;20497;-79
2024/02/29 08:12:02;;;;;;;66.15;19.92;;;3.50;100.00;;;;;;5032762;28;20052;-77
2024/02/29 08:14:29;;;;;;;58.40;21.05;;;3.60;100.00;;;;;;5041077;28;20135;-77
2024/02/29 08:16:56;;;;;;;60.72;20.52;;;3.80;100.00;;;;;;5041540;28;20049;-77
2024/02/29 08:19:26;;;;;;;68.00;22.83;;;3.90;100.00;;;;;;5041644;28;20123;-77
2024/02/29 08:21:53;;;;;;;56.63;19.13;;;4.10;100.00;;;;;;5041650;28;20049;-79
2024/02/29 08:24:20;;;;;;;56.47;19.23;;;4.50;100.00;;;;;;5041240;28;20145;-84
2024/02/29 08:26:46;;;;;;;57.63;19.95;;;5.00;100.00;;;;;;5035915;28;20083;-80
2024/02/29 08:29:16;;;;;;;53.63;18.38;;;5.50;100.00;;;;;;5052321;28;20052;-82
2024/02/29 08:31:43;;;;;;;56.33;19.50;;;6.00;100.00;;;;;;5041647;28;20076;-79
2024/02/29 08:34:10;;;;;;;50.80;18.70;;;6.20;100.00;;;;;;5042011;28;20049;-78
2024/02/29 08:36:37;;;;;;;53.65;19.15;;;6.40;100.00;;;;;;5043078;28;20523;-78
2024/02/29 08:39:04;;;;;;;71.03;19.77;;;6.60;100.00;;;;;;5035375;28;20830;-78
2024/02/29 08:41:31;;;;;;;47.97;16.75;;;6.60;100.00;;;;;;5041642;28;20648;-78
2024/02/29 08:43:57;;;;;;;50.80;18.45;;;6.50;100.00;;;;;;5045176;28;20114;-78
2024/02/29 08:46:24;;;;;;;52.55;18.02;;;6.40;100.00;;;;;;5041543;28;20077;-78
2024/02/29 08:48:51;;;;;;;49.20;19.17;;;6.30;100.00;;;;;;5041576;28;20049;-78
2024/02/29 08:51:18;;;;;;;44.92;16.58;;;6.40;100.00;;;;;;5040721;28;20060;-78
2024/02/29 08:53:45;;;;;;;58.22;18.40;;;6.40;100.00;;;;;;5042035;28;20584;-78
2024/02/29 08:56:12;;;;;;;50.05;18.00;;;6.40;100.00;;;;;;5039363;28;20052;-78
2024/02/29 08:58:39;;;;;;;49.72;18.27;;;6.40;100.00;;;;;;5039231;28;20045;-77
2024/02/29 09:01:07;;;;;;;42.60;16.40;;;6.50;100.00;;;;;;5043335;28;20130;-78
2024/02/29 09:03:34;;;;;;;49.05;15.93;;;6.50;100.00;;;;;;5039995;28;20049;-75
2024/02/29 09:06:01;;;;;;;57.67;18.77;;;6.60;100.00;;;;;;5040650;28;20049;-76
2024/02/29 09:08:28;;;;;;;55.33;17.55;;;6.80;100.00;;;;;;5041960;28;20610;-75
2024/02/29 09:10:56;;;;;;;58.85;17.40;;;6.90;100.00;;;;;;5039669;28;20406;-75
2024/02/29 09:13:23;;;;;;;44.72;16.73;;;7.00;100.00;;;;;;5038962;28;20557;-75
2024/02/29 09:16:00;;;;;;;44.60;17.15;;;7.00;100.00;;;;;;5040590;28;20063;-74
2024/02/29 09:18:29;;;;;;;44.85;16.38;;;7.20;100.00;;;;;;5038742;28;20053;-75
2024/02/29 09:20:56;;;;;;;53.00;18.08;;;7.30;100.00;;;;;;5042364;28;20560;-74
2024/02/29 09:23:26;;;;;;;43.90;16.08;;;7.40;100.00;;;;;;5043752;28;20059;-75
2024/02/29 09:25:52;;;;;;;48.85;16.15;;;7.60;100.00;;;;;;5043096;28;20400;-75
2024/02/29 09:28:19;;;;;;;42.80;16.00;;;7.70;100.00;;;;;;5042908;28;20106;-74
2024/02/29 09:30:46;;;;;;;50.03;17.23;;;7.80;100.00;;;;;;5042031;28;20067;-75
2024/02/29 09:33:13;;;;;;;44.35;16.80;;;8.00;100.00;;;;;;5042812;28;20048;-76
2024/02/29 09:35:40;;;;;;;45.47;17.35;;;8.20;100.00;;;;;;5043694;28;20060;-76
2024/02/29 09:38:06;;;;;;;45.38;15.95;;;8.40;100.00;;;;;;5042945;28;20080;-74
2024/02/29 09:44:11;;;;;;;37.78;14.93;;;8.90;100.00;;;;;;5031905;28;20057;-75
2024/02/29 09:46:41;;;;;;;39.22;15.25;;;9.10;100.00;;;;;;5029125;28;20054;-73
2024/02/29 09:49:08;;;;;;;50.22;16.98;;;9.20;100.00;;;;;;5038613;28;20053;-74
2024/02/29 09:51:37;;;;;;;40.35;16.05;;;9.50;100.00;;;;;;5038122;28;20143;-75
2024/02/29 09:54:06;;;;;;;39.95;16.25;;;9.80;100.00;;;;;;5044228;28;20045;-75
2024/02/29 09:56:35;;;;;;;37.90;16.67;;;10.10;100.00;;;;;;5032638;28;20297;-74
2024/02/29 09:59:04;;;;;;;38.20;16.48;;;10.50;100.00;;;;;;5035984;28;20053;-74
2024/02/29 10:01:33;;;;;;;40.08;15.85;;;10.70;100.00;;;;;;5043877;28;20052;-74
2024/02/29 10:04:03;;;;;;;45.03;16.88;;;10.90;100.00;;;;;;5041321;28;20542;-72
2024/02/29 10:06:30;;;;;;;47.63;16.05;;;11.00;100.00;;;;;;5046161;28;20045;-74
2024/02/29 10:12:18;;;;;;;34.50;14.57;;;11.60;100.00;;;;;;4983600;28;20054;-72
2024/02/29 10:14:47;;;;;;;46.00;15.98;;;11.90;100.00;;;;;;4979229;28;20058;-72
2024/02/29 10:17:13;;;;;;;35.33;15.48;;;11.90;100.00;;;;;;4982567;28;20054;-73
2024/02/29 10:19:40;;;;;;;35.45;15.32;;;11.90;100.00;;;;;;4977588;28;20157;-71
2024/02/29 10:22:08;;;;;;;30.60;15.15;;;12.10;100.00;;;;;;4977376;28;20537;-71
2024/02/29 10:24:34;;;;;;;34.03;15.30;;;12.30;100.00;;;;;;4978175;28;20046;-73
2024/02/29 10:27:02;;;;;;;31.40;14.65;;;12.70;100.00;;;;;;4980333;28;20487;-71
2024/02/29 10:29:29;;;;;;;31.15;14.27;;;12.80;100.00;;;;;;4981243;28;20128;-73
2024/02/29 10:31:58;;;;;;;32.42;14.55;;;12.80;100.00;;;;;;4979011;28;20054;-71
2024/02/29 10:34:24;;;;;;;34.50;14.48;;;12.70;100.00;;;;;;4984160;28;20050;-70
2024/02/29 10:36:51;;;;;;;32.80;14.07;;;12.90;100.00;;;;;;4992146;28;20046;-71
2024/02/29 10:39:18;;;;;;;35.92;14.63;;;13.50;100.00;;;;;;4977195;28;20471;-71
2024/02/29 10:41:51;;;;;;;45.38;15.30;;;13.70;100.00;;;;;;5001271;22;20028;-73
2024/02/29 10:44:24;;;;;;;33.20;14.18;;;13.50;100.00;;;;;;5050936;28;20417;-71
2024/02/29 10:46:55;;;;;;;31.95;14.73;;;13.50;100.00;;;;;;5057721;28;20577;-72
2024/02/29 10:49:38;;;;;;;31.05;14.38;;;13.60;100.00;;;;;;5063621;28;20052;-72
2024/02/29 10:52:12;;;;;;;30.65;13.88;;;14.20;100.00;;;;;;5064894;28;20072;-71
2024/02/29 10:54:47;;;;;;;31.30;14.23;;;14.40;100.00;;;;;;5050415;28;20064;-70
2024/02/29 10:57:18;;;;;;;29.27;14.30;;;14.50;93.10;;;;;;5047901;28;20056;-71
2024/02/29 10:59:52;;;;;;;33.60;14.27;;;14.70;98.80;;;;;;5048993;28;20295;-69
2024/02/29 11:02:19;;;;;;;30.17;13.30;;;14.80;91.00;;;;;;5049937;28;20671;-69
2024/02/29 11:04:47;;;;;;;30.55;14.02;;;14.70;98.30;;;;;;5061046;28;20048;-69
2024/02/29 11:07:15;;;;;;;33.33;12.48;;;14.60;96.00;;;;;;5050172;28;20068;-68
2024/02/29 11:09:42;;;;;;;26.63;12.95;;;14.10;85.60;;;;;;5056210;28;20606;-71
2024/02/29 11:12:13;;;;;;;29.13;12.15;;;13.80;99.10;;;;;;5062220;28;20055;-73
2024/02/29 11:14:48;;;;;;;35.53;13.05;;;13.90;95.10;;;;;;5053611;28;20567;-76
2024/02/29 11:17:15;;;;;;;33.38;13.13;;;13.40;85.90;;;;;;5053139;28;20432;-71
2024/02/29 11:19:42;;;;;;;38.78;12.98;;;13.10;99.50;;;;;;5054508;28;20068;-73
2024/02/29 11:22:33;;;;;;;27.70;11.85;;;12.90;93.10;;;;;;5051822;28;20045;-72
2024/02/29 11:25:09;;;;;;;28.13;11.60;;;13.10;96.50;;;;;;5052232;28;20037;-71
2024/02/29 11:27:50;;;;;;;26.88;11.00;;;13.30;87.50;;;;;;5061477;28;20106;-71
2024/02/29 11:30:23;;;;;;;26.75;11.70;;;13.70;86.30;;;;;;5061011;28;20159;-71
2024/02/29 11:32:51;;;;;;;30.60;12.60;;;14.10;88.40;;;;;;5056819;28;20049;-71
2024/02/29 11:35:18;;;;;;;27.17;11.57;;;14.90;81.30;;;;;;5055698;28;20099;-71
2024/02/29 11:37:46;;;;;;;31.00;12.80;;;15.10;83.00;;;;;;5052724;28;20519;-71
2024/02/29 11:40:15;;;;;;;41.90;13.82;;;15.30;67.80;;;;;;5054106;28;20494;-72
2024/02/29 11:42:42;;;;;;;27.58;12.32;;;16.40;62.50;;;;;;5054966;28;20063;-73
2024/02/29 11:45:19;;;;;;;25.88;11.77;;;17.20;53.20;;;;;;5053666;28;20052;-69
2024/02/29 11:47:47;;;;;;;27.88;12.40;;;17.50;50.00;;;;;;5059275;28;20850;-69
2024/02/29 11:50:14;;;;;;;26.48;12.60;;;18.10;49.90;;;;;;5058896;28;20826;-69
2024/02/29 11:52:40;;;;;;;26.25;12.05;;;17.30;50.20;;;;;;5059428;28;20049;-69
2024/02/29 11:55:07;;;;;;;25.90;11.95;;;17.50;50.50;;;;;;5055381;28;20698;-69
2024/02/29 11:57:34;;;;;;;24.35;10.80;;;17.00;47.60;;;;;;5053634;28;20045;-69
2024/02/29 12:00:01;;;;;;;27.20;12.55;;;16.70;49.20;;;;;;5055064;28;20080;-70
2024/02/29 12:02:28;;;;;;;29.02;11.35;;;17.00;52.00;;;;;;5047200;28;20047;-70
2024/02/29 12:04:56;;;;;;;26.13;11.80;;;18.00;50.80;;;;;;5057584;28;20048;-70
2024/02/29 12:07:25;;;;;;;27.35;10.82;;;18.60;48.10;;;;;;5049975;28;20045;-70
2024/02/29 12:09:52;;;;;;;473.05;61.15;;;17.80;48.60;;;;;;5051342;28;20491;-70
2024/02/29 12:12:20;;;;;;;131.07;23.77;;;17.80;49.20;;;;;;5055922;28;20064;-70
2024/02/29 12:14:47;;;;;;;101.20;20.13;;;17.70;48.50;;;;;;5053712;28;20561;-70
2024/02/29 12:17:16;;;;;;;23.23;11.77;;;18.30;49.70;;;;;;5059816;28;20060;-70
2024/02/29 12:19:44;;;;;;;26.73;11.63;;;18.50;48.70;;;;;;5053395;28;20076;-70
2024/02/29 12:22:13;;;;;;;18.95;9.70;;;18.00;48.70;;;;;;5062405;28;20060;-71
2024/02/29 12:24:42;;;;;;;68.78;15.10;;;17.90;48.70;;;;;;5058599;28;20040;-69
2024/02/29 12:27:09;;;;;;;37.63;12.13;;;19.10;48.50;;;;;;5063062;28;20059;-69
2024/02/29 12:29:36;;;;;;;24.23;10.65;;;19.40;46.20;;;;;;5060794;28;20481;-69
2024/02/29 12:32:03;;;;;;;74.57;16.40;;;19.40;48.00;;;;;;5059896;28;20144;-69
2024/02/29 12:34:29;;;;;;;159.50;26.08;;;19.10;45.60;;;;;;5058220;28;20075;-69
2024/02/29 12:36:56;;;;;;;25.85;11.23;;;19.60;48.00;;;;;;5061825;28;20127;-70
2024/02/29 12:39:23;;;;;;;28.75;10.00;;;20.70;46.30;;;;;;5062959;28;20041;-69